sensor_id;sensor_type;location;lat;lon;timestamp;P1;durP1;ratioP1;P2;durP2;ratioP2
43933;SDS011;59081;42.706;23.306;2023-06-04T00:01:05;3.53;;;2.88;;
43933;SDS011;59081;42.706;23.306;2023-06-04T00:03:31;5.22;;;3.13;;
43933;SDS011;59081;42.706;23.306;2023-06-04T00:05:57;4.88;;;3.53;;
43933;SDS011;59081;42.706;23.306;2023-06-04T00:08:23;4.13;;;3.10;;
43933;SDS011;59081;42.706;23.306;2023-06-04T00:10:48;5.25;;;2.85;;
43933;SDS011;59081;42.706;23.306;2023-06-04T00:13:14;5.63;;;3.90;;
43933;SDS011;59081;42.706;23.306;2023-06-04T00:15:40;4.93;;;3.00;;
43933;SDS011;59081;42.706;23.306;2023-06-04T00:18:06;4.43;;;3.08;;
43933;SDS011;59081;42.706;23.306;2023-06-04T00:20:36;6.97;;;3.10;;
43933;SDS011;59081;42.706;23.306;2023-06-04T00:23:04;3.85;;;3.08;;
43933;SDS011;59081;42.706;23.306;2023-06-04T00:25:30;4.68;;;3.22;;
43933;SDS011;59081;42.706;23.306;2023-06-04T00:27:56;3.40;;;3.05;;
43933;SDS011;59081;42.706;23.306;2023-06-04T00:30:22;3.90;;;3.13;;
43933;SDS011;59081;42.706;23.306;2023-06-04T00:32:47;4.40;;;2.70;;
43933;SDS011;59081;42.706;23.306;2023-06-04T00:35:15;5.20;;;2.97;;
43933;SDS011;59081;42.706;23.306;2023-06-04T00:37:41;5.05;;;3.05;;
43933;SDS011;59081;42.706;23.306;2023-06-04T00:40:06;4.20;;;3.17;;
43933;SDS011;59081;42.706;23.306;2023-06-04T00:42:32;3.53;;;2.55;;
43933;SDS011;59081;42.706;23.306;2023-06-04T00:44:58;4.07;;;3.08;;
43933;SDS011;59081;42.706;23.306;2023-06-04T00:47:24;2.97;;;2.60;;
43933;SDS011;59081;42.706;23.306;2023-06-04T00:49:50;5.25;;;3.20;;
43933;SDS011;59081;42.706;23.306;2023-06-04T00:52:18;3.38;;;2.80;;
43933;SDS011;59081;42.706;23.306;2023-06-04T00:54:44;4.05;;;2.88;;
43933;SDS011;59081;42.706;23.306;2023-06-04T00:57:10;3.92;;;3.30;;
43933;SDS011;59081;42.706;23.306;2023-06-04T00:59:36;6.00;;;2.75;;
43933;SDS011;59081;42.706;23.306;2023-06-04T01:02:12;3.65;;;2.70;;
43933;SDS011;59081;42.706;23.306;2023-06-04T01:07:33;5.95;;;3.20;;
43933;SDS011;59081;42.706;23.306;2023-06-04T01:10:12;4.88;;;3.25;;
43933;SDS011;59081;42.706;23.306;2023-06-04T01:12:41;4.68;;;3.22;;
43933;SDS011;59081;42.706;23.306;2023-06-04T01:15:12;4.95;;;2.92;;
43933;SDS011;59081;42.706;23.306;2023-06-04T01:17:44;7.00;;;2.75;;
43933;SDS011;59081;42.706;23.306;2023-06-04T01:20:25;5.43;;;3.10;;
43933;SDS011;59081;42.706;23.306;2023-06-04T01:23:28;3.17;;;2.45;;
43933;SDS011;59081;42.706;23.306;2023-06-04T01:26:04;4.10;;;2.63;;
43933;SDS011;59081;42.706;23.306;2023-06-04T01:28:33;3.95;;;2.47;;
43933;SDS011;59081;42.706;23.306;2023-06-04T01:31:00;3.20;;;2.53;;
43933;SDS011;59081;42.706;23.306;2023-06-04T01:33:27;3.08;;;2.45;;
43933;SDS011;59081;42.706;23.306;2023-06-04T01:35:53;3.13;;;2.47;;
43933;SDS011;59081;42.706;23.306;2023-06-04T01:38:18;4.70;;;3.55;;
43933;SDS011;59081;42.706;23.306;2023-06-04T01:40:45;4.18;;;2.65;;
43933;SDS011;59081;42.706;23.306;2023-06-04T01:43:11;3.22;;;2.70;;
43933;SDS011;59081;42.706;23.306;2023-06-04T01:45:37;3.83;;;2.53;;
43933;SDS011;59081;42.706;23.306;2023-06-04T01:48:03;2.35;;;2.15;;
43933;SDS011;59081;42.706;23.306;2023-06-04T01:50:31;4.93;;;3.22;;
43933;SDS011;59081;42.706;23.306;2023-06-04T01:52:58;2.75;;;2.28;;
43933;SDS011;59081;42.706;23.306;2023-06-04T01:55:24;3.97;;;2.35;;
43933;SDS011;59081;42.706;23.306;2023-06-04T01:57:57;3.53;;;2.22;;
43933;SDS011;59081;42.706;23.306;2023-06-04T02:00:22;3.88;;;2.50;;
43933;SDS011;59081;42.706;23.306;2023-06-04T02:02:50;3.38;;;2.53;;
43933;SDS011;59081;42.706;23.306;2023-06-04T02:05:16;3.75;;;2.70;;
43933;SDS011;59081;42.706;23.306;2023-06-04T02:07:43;3.33;;;2.30;;
43933;SDS011;59081;42.706;23.306;2023-06-04T02:10:13;3.22;;;2.33;;
43933;SDS011;59081;42.706;23.306;2023-06-04T02:12:52;3.47;;;2.40;;
43933;SDS011;59081;42.706;23.306;2023-06-04T02:15:31;3.38;;;2.40;;
43933;SDS011;59081;42.706;23.306;2023-06-04T02:17:58;3.15;;;2.88;;
43933;SDS011;59081;42.706;23.306;2023-06-04T02:20:38;5.83;;;2.47;;
43933;SDS011;59081;42.706;23.306;2023-06-04T02:23:06;5.40;;;2.45;;
43933;SDS011;59081;42.706;23.306;2023-06-04T02:25:32;5.38;;;2.70;;
43933;SDS011;59081;42.706;23.306;2023-06-04T02:27:57;3.17;;;2.22;;
43933;SDS011;59081;42.706;23.306;2023-06-04T02:30:26;3.17;;;2.03;;
43933;SDS011;59081;42.706;23.306;2023-06-04T02:32:51;2.60;;;2.40;;
43933;SDS011;59081;42.706;23.306;2023-06-04T02:35:20;3.58;;;2.33;;
43933;SDS011;59081;42.706;23.306;2023-06-04T02:37:51;3.88;;;2.78;;
43933;SDS011;59081;42.706;23.306;2023-06-04T02:40:17;7.55;;;2.38;;
43933;SDS011;59081;42.706;23.306;2023-06-04T02:42:42;3.75;;;3.10;;
43933;SDS011;59081;42.706;23.306;2023-06-04T02:45:09;2.78;;;2.10;;
43933;SDS011;59081;42.706;23.306;2023-06-04T02:47:37;4.32;;;2.20;;
43933;SDS011;59081;42.706;23.306;2023-06-04T02:50:03;2.60;;;2.15;;
43933;SDS011;59081;42.706;23.306;2023-06-04T02:52:34;2.80;;;2.40;;
43933;SDS011;59081;42.706;23.306;2023-06-04T02:55:07;3.83;;;2.00;;
43933;SDS011;59081;42.706;23.306;2023-06-04T02:57:34;3.58;;;2.35;;
43933;SDS011;59081;42.706;23.306;2023-06-04T03:00:07;3.20;;;2.60;;
43933;SDS011;59081;42.706;23.306;2023-06-04T03:02:38;2.65;;;2.38;;
43933;SDS011;59081;42.706;23.306;2023-06-04T03:05:05;2.92;;;2.33;;
43933;SDS011;59081;42.706;23.306;2023-06-04T03:07:33;3.63;;;2.97;;
43933;SDS011;59081;42.706;23.306;2023-06-04T03:10:01;5.78;;;2.63;;
43933;SDS011;59081;42.706;23.306;2023-06-04T03:12:26;4.60;;;2.72;;
43933;SDS011;59081;42.706;23.306;2023-06-04T03:15:01;4.10;;;2.72;;
43933;SDS011;59081;42.706;23.306;2023-06-04T03:17:27;3.60;;;2.42;;
43933;SDS011;59081;42.706;23.306;2023-06-04T03:19:53;8.13;;;3.80;;
43933;SDS011;59081;42.706;23.306;2023-06-04T03:22:24;4.88;;;2.90;;
43933;SDS011;59081;42.706;23.306;2023-06-04T03:24:53;13.30;;;3.40;;
43933;SDS011;59081;42.706;23.306;2023-06-04T03:27:19;3.30;;;3.00;;
43933;SDS011;59081;42.706;23.306;2023-06-04T03:29:45;3.83;;;2.53;;
43933;SDS011;59081;42.706;23.306;2023-06-04T03:32:11;4.90;;;2.95;;
43933;SDS011;59081;42.706;23.306;2023-06-04T03:34:38;2.83;;;2.60;;
43933;SDS011;59081;42.706;23.306;2023-06-04T03:37:03;5.43;;;2.78;;
43933;SDS011;59081;42.706;23.306;2023-06-04T03:39:32;3.95;;;2.53;;
43933;SDS011;59081;42.706;23.306;2023-06-04T03:41:58;3.35;;;2.50;;
43933;SDS011;59081;42.706;23.306;2023-06-04T03:44:26;4.38;;;2.80;;
43933;SDS011;59081;42.706;23.306;2023-06-04T03:46:51;3.55;;;2.38;;
43933;SDS011;59081;42.706;23.306;2023-06-04T03:49:19;2.90;;;2.63;;
43933;SDS011;59081;42.706;23.306;2023-06-04T03:51:49;6.20;;;3.28;;
43933;SDS011;59081;42.706;23.306;2023-06-04T03:54:17;4.97;;;3.33;;
43933;SDS011;59081;42.706;23.306;2023-06-04T03:56:44;3.38;;;2.67;;
43933;SDS011;59081;42.706;23.306;2023-06-04T03:59:12;4.95;;;2.85;;
43933;SDS011;59081;42.706;23.306;2023-06-04T04:01:38;6.53;;;3.60;;
43933;SDS011;59081;42.706;23.306;2023-06-04T04:04:04;5.18;;;3.15;;
43933;SDS011;59081;42.706;23.306;2023-06-04T04:06:30;6.18;;;3.42;;
43933;SDS011;59081;42.706;23.306;2023-06-04T04:08:56;10.50;;;3.53;;
43933;SDS011;59081;42.706;23.306;2023-06-04T04:11:21;6.72;;;3.30;;
43933;SDS011;59081;42.706;23.306;2023-06-04T04:13:47;7.13;;;3.65;;
43933;SDS011;59081;42.706;23.306;2023-06-04T04:16:13;3.83;;;3.33;;
43933;SDS011;59081;42.706;23.306;2023-06-04T04:18:40;9.32;;;4.15;;
43933;SDS011;59081;42.706;23.306;2023-06-04T04:21:15;5.10;;;3.75;;
43933;SDS011;59081;42.706;23.306;2023-06-04T04:23:40;5.68;;;3.90;;
43933;SDS011;59081;42.706;23.306;2023-06-04T04:26:06;7.55;;;4.07;;
43933;SDS011;59081;42.706;23.306;2023-06-04T04:28:32;4.40;;;3.28;;
43933;SDS011;59081;42.706;23.306;2023-06-04T04:30:59;6.25;;;3.95;;
43933;SDS011;59081;42.706;23.306;2023-06-04T04:33:27;6.53;;;3.90;;
43933;SDS011;59081;42.706;23.306;2023-06-04T04:36:05;6.57;;;4.65;;
43933;SDS011;59081;42.706;23.306;2023-06-04T04:38:39;4.75;;;3.35;;
43933;SDS011;59081;42.706;23.306;2023-06-04T04:41:05;6.20;;;3.75;;
43933;SDS011;59081;42.706;23.306;2023-06-04T04:43:33;4.72;;;3.80;;
43933;SDS011;59081;42.706;23.306;2023-06-04T04:46:00;7.07;;;4.28;;
43933;SDS011;59081;42.706;23.306;2023-06-04T04:48:25;4.25;;;3.47;;
43933;SDS011;59081;42.706;23.306;2023-06-04T04:50:51;5.60;;;4.18;;
43933;SDS011;59081;42.706;23.306;2023-06-04T04:53:20;9.20;;;4.13;;
43933;SDS011;59081;42.706;23.306;2023-06-04T04:55:46;9.45;;;4.82;;
43933;SDS011;59081;42.706;23.306;2023-06-04T04:58:12;6.97;;;4.55;;
43933;SDS011;59081;42.706;23.306;2023-06-04T05:00:40;7.68;;;4.63;;
43933;SDS011;59081;42.706;23.306;2023-06-04T05:03:12;12.48;;;6.03;;
43933;SDS011;59081;42.706;23.306;2023-06-04T05:05:40;11.57;;;9.10;;
43933;SDS011;59081;42.706;23.306;2023-06-04T05:08:06;8.90;;;5.18;;
43933;SDS011;59081;42.706;23.306;2023-06-04T05:10:35;10.52;;;6.93;;
43933;SDS011;59081;42.706;23.306;2023-06-04T05:13:03;8.65;;;4.40;;
43933;SDS011;59081;42.706;23.306;2023-06-04T05:15:31;9.32;;;4.45;;
43933;SDS011;59081;42.706;23.306;2023-06-04T05:17:59;9.00;;;5.13;;
43933;SDS011;59081;42.706;23.306;2023-06-04T05:20:25;8.40;;;4.93;;
43933;SDS011;59081;42.706;23.306;2023-06-04T05:22:51;11.15;;;5.35;;
43933;SDS011;59081;42.706;23.306;2023-06-04T05:25:17;5.97;;;3.67;;
43933;SDS011;59081;42.706;23.306;2023-06-04T05:27:43;8.18;;;3.95;;
43933;SDS011;59081;42.706;23.306;2023-06-04T05:30:09;8.95;;;3.60;;
43933;SDS011;59081;42.706;23.306;2023-06-04T05:32:36;8.02;;;4.53;;
43933;SDS011;59081;42.706;23.306;2023-06-04T05:35:05;9.23;;;4.50;;
43933;SDS011;59081;42.706;23.306;2023-06-04T05:37:34;9.43;;;4.05;;
43933;SDS011;59081;42.706;23.306;2023-06-04T05:40:00;8.18;;;4.90;;
43933;SDS011;59081;42.706;23.306;2023-06-04T05:42:30;6.95;;;4.30;;
43933;SDS011;59081;42.706;23.306;2023-06-04T05:45:02;10.05;;;4.35;;
43933;SDS011;59081;42.706;23.306;2023-06-04T05:47:28;7.13;;;4.63;;
43933;SDS011;59081;42.706;23.306;2023-06-04T05:49:56;7.70;;;3.78;;
43933;SDS011;59081;42.706;23.306;2023-06-04T05:52:22;6.28;;;4.22;;
43933;SDS011;59081;42.706;23.306;2023-06-04T05:54:51;8.25;;;4.38;;
43933;SDS011;59081;42.706;23.306;2023-06-04T05:57:16;8.50;;;4.53;;
43933;SDS011;59081;42.706;23.306;2023-06-04T05:59:42;7.95;;;4.35;;
43933;SDS011;59081;42.706;23.306;2023-06-04T06:02:11;9.13;;;5.38;;
43933;SDS011;59081;42.706;23.306;2023-06-04T06:04:39;6.70;;;4.00;;
43933;SDS011;59081;42.706;23.306;2023-06-04T06:07:05;12.52;;;4.38;;
43933;SDS011;59081;42.706;23.306;2023-06-04T06:09:34;7.20;;;4.93;;
43933;SDS011;59081;42.706;23.306;2023-06-04T06:12:02;8.52;;;4.85;;
43933;SDS011;59081;42.706;23.306;2023-06-04T06:14:28;6.10;;;4.03;;
43933;SDS011;59081;42.706;23.306;2023-06-04T06:16:54;7.43;;;4.80;;
43933;SDS011;59081;42.706;23.306;2023-06-04T06:19:20;5.50;;;3.85;;
43933;SDS011;59081;42.706;23.306;2023-06-04T06:21:48;10.45;;;4.50;;
43933;SDS011;59081;42.706;23.306;2023-06-04T06:24:13;8.15;;;4.30;;
43933;SDS011;59081;42.706;23.306;2023-06-04T06:26:39;7.85;;;4.63;;
43933;SDS011;59081;42.706;23.306;2023-06-04T06:29:08;8.77;;;4.22;;
43933;SDS011;59081;42.706;23.306;2023-06-04T06:31:39;9.68;;;4.25;;
43933;SDS011;59081;42.706;23.306;2023-06-04T06:34:07;7.53;;;3.63;;
43933;SDS011;59081;42.706;23.306;2023-06-04T06:36:33;8.95;;;4.50;;
43933;SDS011;59081;42.706;23.306;2023-06-04T06:39:01;8.93;;;4.13;;
43933;SDS011;59081;42.706;23.306;2023-06-04T06:41:26;7.95;;;4.47;;
43933;SDS011;59081;42.706;23.306;2023-06-04T06:43:52;7.15;;;4.20;;
43933;SDS011;59081;42.706;23.306;2023-06-04T06:46:21;6.15;;;4.28;;
43933;SDS011;59081;42.706;23.306;2023-06-04T06:51:21;6.80;;;4.03;;
43933;SDS011;59081;42.706;23.306;2023-06-04T06:53:49;8.50;;;4.75;;
43933;SDS011;59081;42.706;23.306;2023-06-04T06:56:17;7.28;;;4.03;;
43933;SDS011;59081;42.706;23.306;2023-06-04T06:58:46;7.07;;;4.18;;
43933;SDS011;59081;42.706;23.306;2023-06-04T07:01:11;7.65;;;4.32;;
43933;SDS011;59081;42.706;23.306;2023-06-04T07:03:38;8.80;;;4.03;;
43933;SDS011;59081;42.706;23.306;2023-06-04T07:06:05;7.38;;;4.47;;
43933;SDS011;59081;42.706;23.306;2023-06-04T07:08:31;7.38;;;3.85;;
43933;SDS011;59081;42.706;23.306;2023-06-04T07:10:58;8.38;;;4.60;;
43933;SDS011;59081;42.706;23.306;2023-06-04T07:13:24;9.57;;;5.00;;
43933;SDS011;59081;42.706;23.306;2023-06-04T07:15:50;6.65;;;3.92;;
43933;SDS011;59081;42.706;23.306;2023-06-04T07:18:16;7.70;;;4.50;;
43933;SDS011;59081;42.706;23.306;2023-06-04T07:20:44;6.57;;;4.93;;
43933;SDS011;59081;42.706;23.306;2023-06-04T07:23:10;6.45;;;4.55;;
43933;SDS011;59081;42.706;23.306;2023-06-04T07:25:38;8.88;;;4.80;;
43933;SDS011;59081;42.706;23.306;2023-06-04T07:28:04;8.82;;;5.28;;
43933;SDS011;59081;42.706;23.306;2023-06-04T07:30:30;9.38;;;4.65;;
43933;SDS011;59081;42.706;23.306;2023-06-04T07:32:59;15.13;;;4.65;;
43933;SDS011;59081;42.706;23.306;2023-06-04T07:35:25;9.57;;;4.75;;
43933;SDS011;59081;42.706;23.306;2023-06-04T07:37:51;7.65;;;4.88;;
43933;SDS011;59081;42.706;23.306;2023-06-04T07:40:16;8.73;;;5.32;;
43933;SDS011;59081;42.706;23.306;2023-06-04T07:42:45;5.25;;;4.03;;
43933;SDS011;59081;42.706;23.306;2023-06-04T07:45:14;6.95;;;4.28;;
43933;SDS011;59081;42.706;23.306;2023-06-04T07:47:43;9.02;;;3.60;;
43933;SDS011;59081;42.706;23.306;2023-06-04T07:50:08;7.70;;;4.85;;
43933;SDS011;59081;42.706;23.306;2023-06-04T07:52:34;9.75;;;4.30;;
43933;SDS011;59081;42.706;23.306;2023-06-04T07:55:05;6.50;;;4.97;;
43933;SDS011;59081;42.706;23.306;2023-06-04T07:57:31;5.63;;;4.57;;
43933;SDS011;59081;42.706;23.306;2023-06-04T07:59:57;7.50;;;5.20;;
43933;SDS011;59081;42.706;23.306;2023-06-04T08:02:23;13.50;;;4.82;;
43933;SDS011;59081;42.706;23.306;2023-06-04T08:04:48;9.52;;;5.13;;
43933;SDS011;59081;42.706;23.306;2023-06-04T08:07:15;7.45;;;5.85;;
43933;SDS011;59081;42.706;23.306;2023-06-04T08:09:40;9.00;;;5.50;;
43933;SDS011;59081;42.706;23.306;2023-06-04T08:12:06;9.63;;;5.65;;
43933;SDS011;59081;42.706;23.306;2023-06-04T08:14:32;7.65;;;4.68;;
43933;SDS011;59081;42.706;23.306;2023-06-04T08:16:57;9.40;;;5.82;;
43933;SDS011;59081;42.706;23.306;2023-06-04T08:19:23;9.02;;;5.65;;
43933;SDS011;59081;42.706;23.306;2023-06-04T08:21:49;7.82;;;5.35;;
43933;SDS011;59081;42.706;23.306;2023-06-04T08:24:15;6.47;;;5.25;;
43933;SDS011;59081;42.706;23.306;2023-06-04T08:26:40;9.82;;;6.00;;
43933;SDS011;59081;42.706;23.306;2023-06-04T08:29:06;9.43;;;5.75;;
43933;SDS011;59081;42.706;23.306;2023-06-04T08:31:32;7.60;;;5.75;;
43933;SDS011;59081;42.706;23.306;2023-06-04T08:34:01;11.98;;;6.82;;
43933;SDS011;59081;42.706;23.306;2023-06-04T08:36:35;10.82;;;7.00;;
43933;SDS011;59081;42.706;23.306;2023-06-04T08:39:01;8.15;;;4.65;;
43933;SDS011;59081;42.706;23.306;2023-06-04T08:41:34;7.22;;;3.50;;
43933;SDS011;59081;42.706;23.306;2023-06-04T08:44:09;8.73;;;5.68;;
43933;SDS011;59081;42.706;23.306;2023-06-04T08:46:38;8.45;;;4.60;;
43933;SDS011;59081;42.706;23.306;2023-06-04T08:49:05;6.57;;;4.78;;
43933;SDS011;59081;42.706;23.306;2023-06-04T08:51:32;10.13;;;6.93;;
43933;SDS011;59081;42.706;23.306;2023-06-04T08:54:02;2.90;;;2.03;;
43933;SDS011;59081;42.706;23.306;2023-06-04T08:56:29;12.55;;;6.55;;
43933;SDS011;59081;42.706;23.306;2023-06-04T08:58:59;10.25;;;5.80;;
43933;SDS011;59081;42.706;23.306;2023-06-04T09:01:27;8.05;;;6.15;;
43933;SDS011;59081;42.706;23.306;2023-06-04T09:03:55;13.20;;;6.55;;
43933;SDS011;59081;42.706;23.306;2023-06-04T09:06:24;12.55;;;7.25;;
43933;SDS011;59081;42.706;23.306;2023-06-04T09:08:51;9.35;;;5.72;;
43933;SDS011;59081;42.706;23.306;2023-06-04T09:11:21;7.85;;;5.55;;
43933;SDS011;59081;42.706;23.306;2023-06-04T09:13:50;8.25;;;5.82;;
43933;SDS011;59081;42.706;23.306;2023-06-04T09:16:17;13.23;;;6.43;;
43933;SDS011;59081;42.706;23.306;2023-06-04T09:18:43;7.70;;;5.50;;
43933;SDS011;59081;42.706;23.306;2023-06-04T09:21:10;9.65;;;5.70;;
43933;SDS011;59081;42.706;23.306;2023-06-04T09:23:45;8.38;;;5.90;;
43933;SDS011;59081;42.706;23.306;2023-06-04T09:26:12;7.15;;;4.53;;
43933;SDS011;59081;42.706;23.306;2023-06-04T09:28:41;7.88;;;5.65;;
43933;SDS011;59081;42.706;23.306;2023-06-04T09:31:17;11.70;;;6.85;;
43933;SDS011;59081;42.706;23.306;2023-06-04T09:33:43;11.00;;;6.47;;
43933;SDS011;59081;42.706;23.306;2023-06-04T09:36:13;9.38;;;6.28;;
43933;SDS011;59081;42.706;23.306;2023-06-04T09:38:46;7.72;;;3.97;;
43933;SDS011;59081;42.706;23.306;2023-06-04T09:41:59;9.73;;;6.07;;
43933;SDS011;59081;42.706;23.306;2023-06-04T09:44:26;8.20;;;5.25;;
43933;SDS011;59081;42.706;23.306;2023-06-04T09:46:55;14.93;;;8.05;;
43933;SDS011;59081;42.706;23.306;2023-06-04T09:49:21;11.40;;;7.18;;
43933;SDS011;59081;42.706;23.306;2023-06-04T09:51:47;11.20;;;7.18;;
43933;SDS011;59081;42.706;23.306;2023-06-04T09:54:14;11.10;;;6.25;;
43933;SDS011;59081;42.706;23.306;2023-06-04T09:56:40;9.77;;;6.38;;
43933;SDS011;59081;42.706;23.306;2023-06-04T09:59:06;12.95;;;6.70;;
43933;SDS011;59081;42.706;23.306;2023-06-04T10:01:34;7.72;;;5.38;;
43933;SDS011;59081;42.706;23.306;2023-06-04T10:04:06;9.25;;;7.28;;
43933;SDS011;59081;42.706;23.306;2023-06-04T10:06:37;11.50;;;7.50;;
43933;SDS011;59081;42.706;23.306;2023-06-04T10:12:13;7.82;;;5.82;;
43933;SDS011;59081;42.706;23.306;2023-06-04T10:14:41;9.55;;;6.50;;
43933;SDS011;59081;42.706;23.306;2023-06-04T10:17:16;8.15;;;6.38;;
43933;SDS011;59081;42.706;23.306;2023-06-04T10:19:43;8.77;;;6.07;;
43933;SDS011;59081;42.706;23.306;2023-06-04T10:22:10;11.77;;;7.07;;
43933;SDS011;59081;42.706;23.306;2023-06-04T10:24:39;10.20;;;6.28;;
43933;SDS011;59081;42.706;23.306;2023-06-04T10:27:05;14.45;;;6.00;;
43933;SDS011;59081;42.706;23.306;2023-06-04T10:29:36;9.00;;;5.55;;
43933;SDS011;59081;42.706;23.306;2023-06-04T10:32:02;8.40;;;6.07;;
43933;SDS011;59081;42.706;23.306;2023-06-04T10:34:28;6.55;;;4.85;;
43933;SDS011;59081;42.706;23.306;2023-06-04T10:36:55;9.52;;;6.88;;
43933;SDS011;59081;42.706;23.306;2023-06-04T10:39:39;8.88;;;5.70;;
43933;SDS011;59081;42.706;23.306;2023-06-04T10:42:40;6.95;;;5.55;;
43933;SDS011;59081;42.706;23.306;2023-06-04T10:45:09;11.40;;;6.05;;
43933;SDS011;59081;42.706;23.306;2023-06-04T10:47:35;8.38;;;6.05;;
43933;SDS011;59081;42.706;23.306;2023-06-04T10:50:09;7.10;;;5.57;;
43933;SDS011;59081;42.706;23.306;2023-06-04T10:52:39;7.97;;;5.25;;
43933;SDS011;59081;42.706;23.306;2023-06-04T10:55:16;7.15;;;5.45;;
43933;SDS011;59081;42.706;23.306;2023-06-04T10:57:50;9.02;;;4.25;;
43933;SDS011;59081;42.706;23.306;2023-06-04T11:00:17;12.68;;;9.52;;
43933;SDS011;59081;42.706;23.306;2023-06-04T11:02:56;8.77;;;6.90;;
43933;SDS011;59081;42.706;23.306;2023-06-04T11:05:21;8.85;;;5.85;;
43933;SDS011;59081;42.706;23.306;2023-06-04T11:07:58;10.45;;;6.32;;
43933;SDS011;59081;42.706;23.306;2023-06-04T11:10:30;8.48;;;5.93;;
43933;SDS011;59081;42.706;23.306;2023-06-04T11:13:14;7.78;;;6.18;;
43933;SDS011;59081;42.706;23.306;2023-06-04T11:15:43;9.75;;;5.97;;
43933;SDS011;59081;42.706;23.306;2023-06-04T11:18:17;9.48;;;6.63;;
43933;SDS011;59081;42.706;23.306;2023-06-04T11:20:44;10.27;;;7.13;;
43933;SDS011;59081;42.706;23.306;2023-06-04T11:23:13;10.23;;;7.93;;
43933;SDS011;59081;42.706;23.306;2023-06-04T11:25:39;10.80;;;7.28;;
43933;SDS011;59081;42.706;23.306;2023-06-04T11:28:07;7.72;;;6.20;;
43933;SDS011;59081;42.706;23.306;2023-06-04T11:30:33;8.68;;;6.38;;
43933;SDS011;59081;42.706;23.306;2023-06-04T11:33:02;8.75;;;6.45;;
43933;SDS011;59081;42.706;23.306;2023-06-04T11:35:31;9.52;;;7.65;;
43933;SDS011;59081;42.706;23.306;2023-06-04T11:38:05;8.55;;;6.35;;
43933;SDS011;59081;42.706;23.306;2023-06-04T11:40:31;9.60;;;5.97;;
43933;SDS011;59081;42.706;23.306;2023-06-04T11:42:57;10.30;;;7.10;;
43933;SDS011;59081;42.706;23.306;2023-06-04T11:45:22;7.22;;;5.55;;
43933;SDS011;59081;42.706;23.306;2023-06-04T11:47:49;6.57;;;5.72;;
43933;SDS011;59081;42.706;23.306;2023-06-04T11:50:17;13.57;;;7.38;;
43933;SDS011;59081;42.706;23.306;2023-06-04T11:52:43;12.40;;;6.40;;
43933;SDS011;59081;42.706;23.306;2023-06-04T11:55:09;8.05;;;6.38;;
43933;SDS011;59081;42.706;23.306;2023-06-04T11:57:39;7.32;;;6.03;;
43933;SDS011;59081;42.706;23.306;2023-06-04T12:00:06;9.57;;;7.32;;
43933;SDS011;59081;42.706;23.306;2023-06-04T12:02:37;8.18;;;7.38;;
43933;SDS011;59081;42.706;23.306;2023-06-04T12:05:16;9.65;;;6.57;;
43933;SDS011;59081;42.706;23.306;2023-06-04T12:07:45;9.68;;;7.03;;
43933;SDS011;59081;42.706;23.306;2023-06-04T12:13:17;9.27;;;7.70;;
43933;SDS011;59081;42.706;23.306;2023-06-04T12:15:43;11.27;;;7.47;;
43933;SDS011;59081;42.706;23.306;2023-06-04T12:18:24;7.32;;;6.50;;
43933;SDS011;59081;42.706;23.306;2023-06-04T12:20:50;10.88;;;7.47;;
43933;SDS011;59081;42.706;23.306;2023-06-04T12:23:23;8.70;;;6.05;;
43933;SDS011;59081;42.706;23.306;2023-06-04T12:28:18;8.65;;;5.88;;
43933;SDS011;59081;42.706;23.306;2023-06-04T12:30:43;9.80;;;7.47;;
43933;SDS011;59081;42.706;23.306;2023-06-04T12:33:10;10.20;;;6.78;;
43933;SDS011;59081;42.706;23.306;2023-06-04T12:35:35;11.48;;;7.93;;
43933;SDS011;59081;42.706;23.306;2023-06-04T12:38:04;8.77;;;7.30;;
43933;SDS011;59081;42.706;23.306;2023-06-04T12:40:30;8.18;;;4.75;;
43933;SDS011;59081;42.706;23.306;2023-06-04T12:42:56;11.55;;;7.43;;
43933;SDS011;59081;42.706;23.306;2023-06-04T12:45:24;8.98;;;7.38;;
43933;SDS011;59081;42.706;23.306;2023-06-04T12:47:52;11.68;;;7.05;;
43933;SDS011;59081;42.706;23.306;2023-06-04T12:50:18;9.07;;;7.07;;
43933;SDS011;59081;42.706;23.306;2023-06-04T12:52:44;8.20;;;6.47;;
43933;SDS011;59081;42.706;23.306;2023-06-04T12:55:09;9.68;;;7.85;;
43933;SDS011;59081;42.706;23.306;2023-06-04T12:57:35;8.10;;;6.60;;
43933;SDS011;59081;42.706;23.306;2023-06-04T13:00:00;9.85;;;6.88;;
43933;SDS011;59081;42.706;23.306;2023-06-04T13:02:32;9.85;;;7.20;;
43933;SDS011;59081;42.706;23.306;2023-06-04T13:04:57;6.07;;;3.90;;
43933;SDS011;59081;42.706;23.306;2023-06-04T13:07:26;6.97;;;6.28;;
43933;SDS011;59081;42.706;23.306;2023-06-04T13:09:52;7.65;;;5.43;;
43933;SDS011;59081;42.706;23.306;2023-06-04T13:12:18;10.80;;;6.68;;
43933;SDS011;59081;42.706;23.306;2023-06-04T13:14:43;11.13;;;6.90;;
43933;SDS011;59081;42.706;23.306;2023-06-04T13:17:11;10.65;;;6.38;;
43933;SDS011;59081;42.706;23.306;2023-06-04T13:19:47;8.60;;;6.70;;
43933;SDS011;59081;42.706;23.306;2023-06-04T13:22:13;7.82;;;7.03;;
43933;SDS011;59081;42.706;23.306;2023-06-04T13:24:38;9.02;;;6.63;;
43933;SDS011;59081;42.706;23.306;2023-06-04T13:27:04;7.65;;;6.15;;
43933;SDS011;59081;42.706;23.306;2023-06-04T13:29:30;6.15;;;4.35;;
43933;SDS011;59081;42.706;23.306;2023-06-04T13:31:59;10.10;;;6.50;;
43933;SDS011;59081;42.706;23.306;2023-06-04T13:34:25;9.32;;;5.90;;
43933;SDS011;59081;42.706;23.306;2023-06-04T13:36:53;7.35;;;6.00;;
43933;SDS011;59081;42.706;23.306;2023-06-04T13:39:20;7.78;;;5.95;;
43933;SDS011;59081;42.706;23.306;2023-06-04T13:41:48;7.28;;;5.97;;
43933;SDS011;59081;42.706;23.306;2023-06-04T13:44:14;7.55;;;6.43;;
43933;SDS011;59081;42.706;23.306;2023-06-04T13:46:42;9.18;;;5.13;;
43933;SDS011;59081;42.706;23.306;2023-06-04T13:49:23;8.32;;;5.68;;
43933;SDS011;59081;42.706;23.306;2023-06-04T13:51:49;5.28;;;3.65;;
43933;SDS011;59081;42.706;23.306;2023-06-04T13:54:17;9.57;;;5.32;;
43933;SDS011;59081;42.706;23.306;2023-06-04T13:56:43;8.38;;;5.38;;
43933;SDS011;59081;42.706;23.306;2023-06-04T13:59:09;7.85;;;5.55;;
43933;SDS011;59081;42.706;23.306;2023-06-04T14:01:35;5.95;;;5.35;;
43933;SDS011;59081;42.706;23.306;2023-06-04T14:04:01;6.30;;;4.70;;
43933;SDS011;59081;42.706;23.306;2023-06-04T14:06:31;8.63;;;6.07;;
43933;SDS011;59081;42.706;23.306;2023-06-04T14:08:56;9.80;;;5.88;;
43933;SDS011;59081;42.706;23.306;2023-06-04T14:11:25;7.80;;;6.05;;
43933;SDS011;59081;42.706;23.306;2023-06-04T14:13:50;5.88;;;4.90;;
43933;SDS011;59081;42.706;23.306;2023-06-04T14:16:16;10.80;;;5.78;;
43933;SDS011;59081;42.706;23.306;2023-06-04T14:18:42;7.15;;;5.65;;
43933;SDS011;59081;42.706;23.306;2023-06-04T14:21:07;10.27;;;6.30;;
43933;SDS011;59081;42.706;23.306;2023-06-04T14:23:33;9.98;;;6.20;;
43933;SDS011;59081;42.706;23.306;2023-06-04T14:25:59;13.27;;;5.70;;
43933;SDS011;59081;42.706;23.306;2023-06-04T14:28:25;8.82;;;4.93;;
43933;SDS011;59081;42.706;23.306;2023-06-04T14:30:50;7.60;;;5.68;;
43933;SDS011;59081;42.706;23.306;2023-06-04T14:33:16;8.93;;;5.32;;
43933;SDS011;59081;42.706;23.306;2023-06-04T14:35:42;6.93;;;6.07;;
43933;SDS011;59081;42.706;23.306;2023-06-04T14:38:12;5.70;;;5.13;;
43933;SDS011;59081;42.706;23.306;2023-06-04T14:40:39;6.90;;;5.50;;
43933;SDS011;59081;42.706;23.306;2023-06-04T14:43:06;10.70;;;5.80;;
43933;SDS011;59081;42.706;23.306;2023-06-04T14:45:32;7.93;;;6.00;;
43933;SDS011;59081;42.706;23.306;2023-06-04T14:47:57;19.30;;;6.53;;
43933;SDS011;59081;42.706;23.306;2023-06-04T14:50:23;10.68;;;6.10;;
43933;SDS011;59081;42.706;23.306;2023-06-04T14:52:49;7.38;;;6.20;;